Airport ID:KTSP
Update Time (UTC):11 AUG 20 18:03
Wind Speed (Knots):12
Wind Direction (Magnetic):300
Temperature (°C):27
Dew Point (°C):9
Humidity (%):31
Altimeter (inHg):30.11
Density Altitude (Feet):6100
Visibility (Miles):10
Clouds (Hundreds of feet):CLR
Present Weather:NO PRECIPITATION
METAR:METAR KTSP 111800Z AUTO 31013KT 10SM CLR 27/09 A3010 RMK AO2

The data displayed is for advisory purposes only and is not to be used for flight planning or operations.